Time;durP1;ratioP1;P1;durP2;ratioP2;P2;SDS_P1;SDS_P2;PMS_P1;PMS_P2;Temp;Humidity;BMP_temperature;BMP_pressure;BME280_temperature;BME280_humidity;BME280_pressure;Samples;Min_cycle;Max_cycle;Signal;HPM_P1;HPM_P2
2024/03/10 00:02:22;;;;;;;23.00;21.80;;;21.30;51.00;;;;;;4974959;28;20452;-56
2024/03/10 00:04:49;;;;;;;22.30;21.30;;;21.30;51.00;;;;;;4974483;28;20472;-58
2024/03/10 00:07:17;;;;;;;24.00;22.60;;;21.30;51.00;;;;;;4975432;28;20444;-60
2024/03/10 00:09:45;;;;;;;22.40;21.30;;;21.30;51.00;;;;;;4975174;28;20494;-55
2024/03/10 00:12:12;;;;;;;22.60;21.50;;;21.30;51.00;;;;;;4967435;28;20448;-58
2024/03/10 00:14:39;;;;;;;23.13;22.03;;;21.30;51.10;;;;;;4974751;28;20475;-56
2024/03/10 00:17:09;;;;;;;22.37;21.33;;;21.30;51.10;;;;;;4973485;28;20444;-57
2024/03/10 00:19:35;;;;;;;22.27;21.20;;;21.30;51.10;;;;;;4974728;28;20527;-60
2024/03/10 00:22:02;;;;;;;22.27;21.17;;;21.30;51.10;;;;;;4974582;28;20975;-54
2024/03/10 00:24:30;;;;;;;22.70;21.60;;;21.30;51.10;;;;;;4975249;28;20450;-58
2024/03/10 00:26:57;;;;;;;22.33;21.30;;;21.30;51.10;;;;;;4974726;28;20444;-56
2024/03/10 00:29:24;;;;;;;22.50;21.50;;;21.20;51.00;;;;;;4974750;28;20447;-58
2024/03/10 00:31:51;;;;;;;22.27;21.17;;;21.20;51.00;;;;;;4974582;28;20463;-59
2024/03/10 00:34:19;;;;;;;21.40;20.50;;;21.20;51.00;;;;;;4974253;28;20475;-61
2024/03/10 00:36:46;;;;;;;22.77;21.67;;;21.20;51.10;;;;;;4974587;28;20447;-61
2024/03/10 00:39:12;;;;;;;22.50;21.50;;;21.20;51.10;;;;;;4974530;28;20860;-62
2024/03/10 00:41:41;;;;;;;22.20;21.10;;;21.20;51.10;;;;;;4974464;28;20467;-59
2024/03/10 00:44:08;;;;;;;22.43;21.40;;;21.20;51.10;;;;;;4974910;28;20436;-59
2024/03/10 00:46:34;;;;;;;22.47;21.43;;;21.20;51.10;;;;;;4974255;28;20805;-57
2024/03/10 00:49:01;;;;;;;22.13;21.03;;;21.20;51.10;;;;;;4974063;28;20450;-59
2024/03/10 00:51:28;;;;;;;22.70;21.70;;;21.20;51.10;;;;;;4974298;28;20514;-62
2024/03/10 00:53:55;;;;;;;24.20;23.00;;;21.20;51.10;;;;;;4974274;28;20479;-62
2024/03/10 00:56:22;;;;;;;23.40;22.37;;;21.20;51.20;;;;;;4974514;28;20468;-62
2024/03/10 00:58:50;;;;;;;23.57;22.47;;;21.20;51.20;;;;;;4974545;28;20808;-61
2024/03/10 01:01:17;;;;;;;23.73;22.60;;;21.20;51.20;;;;;;4975101;28;20517;-62
2024/03/10 01:03:44;;;;;;;24.90;23.40;;;21.20;51.20;;;;;;4975229;28;20504;-62
2024/03/10 01:06:12;;;;;;;21.70;20.77;;;21.20;51.20;;;;;;4981807;28;20471;-61
2024/03/10 01:08:39;;;;;;;22.90;21.80;;;21.20;51.20;;;;;;4975696;28;20483;-62
2024/03/10 01:11:06;;;;;;;21.70;20.73;;;21.20;51.20;;;;;;4975279;28;20448;-62
2024/03/10 01:13:34;;;;;;;21.43;20.53;;;21.20;51.20;;;;;;4974652;28;20447;-62
2024/03/10 01:16:03;;;;;;;21.90;20.90;;;21.20;51.20;;;;;;4974690;28;20507;-61
2024/03/10 01:18:30;;;;;;;22.17;21.27;;;21.20;51.20;;;;;;4974651;28;20522;-61
2024/03/10 01:20:56;;;;;;;22.33;21.33;;;21.10;51.10;;;;;;4974335;28;20524;-62
2024/03/10 01:23:23;;;;;;;22.30;21.37;;;21.10;51.20;;;;;;4980436;28;20482;-62
2024/03/10 01:25:50;;;;;;;22.27;21.17;;;21.20;51.20;;;;;;4975110;28;20818;-62
2024/03/10 01:28:17;;;;;;;22.63;21.63;;;21.20;51.30;;;;;;4975198;28;20442;-62
2024/03/10 01:30:46;;;;;;;21.90;20.90;;;21.20;51.30;;;;;;4975465;28;20805;-62
2024/03/10 01:33:14;;;;;;;22.30;21.30;;;21.10;51.20;;;;;;4967057;28;20945;-62
2024/03/10 01:35:42;;;;;;;25.37;24.27;;;21.10;51.20;;;;;;4974956;28;20968;-62
2024/03/10 01:38:09;;;;;;;22.33;21.33;;;21.10;51.30;;;;;;4973866;28;20443;-60
2024/03/10 01:40:36;;;;;;;21.70;20.70;;;21.10;51.30;;;;;;4973403;28;20451;-59
2024/03/10 01:43:04;;;;;;;21.47;20.50;;;21.10;51.30;;;;;;4973935;28;20539;-58
2024/03/10 01:45:32;;;;;;;21.73;20.73;;;21.10;51.30;;;;;;4974296;28;20527;-55
2024/03/10 01:47:59;;;;;;;21.10;20.10;;;21.10;51.30;;;;;;4977217;28;20452;-58
2024/03/10 01:50:28;;;;;;;21.70;20.70;;;21.10;51.30;;;;;;4973443;28;20452;-55
2024/03/10 01:52:54;;;;;;;21.57;20.57;;;21.10;51.30;;;;;;4972812;28;20444;-60
2024/03/10 01:55:22;;;;;;;22.03;21.03;;;21.10;51.30;;;;;;4972990;28;20488;-59
2024/03/10 01:57:49;;;;;;;21.60;20.60;;;21.10;51.30;;;;;;4973107;28;20458;-58
2024/03/10 02:00:18;;;;;;;22.00;21.00;;;21.10;51.30;;;;;;4965478;28;20828;-61
2024/03/10 02:02:45;;;;;;;21.47;20.50;;;21.10;51.30;;;;;;4976939;28;20498;-58
2024/03/10 02:05:11;;;;;;;21.77;20.80;;;21.10;51.30;;;;;;4973242;28;20452;-58
2024/03/10 02:07:39;;;;;;;21.70;20.80;;;21.10;51.40;;;;;;4978792;28;20451;-59
2024/03/10 02:10:08;;;;;;;21.10;20.20;;;21.10;51.40;;;;;;4974787;28;20550;-61
2024/03/10 02:12:35;;;;;;;21.67;20.70;;;21.10;51.40;;;;;;4972823;28;20452;-58
2024/03/10 02:15:06;;;;;;;22.20;21.20;;;21.10;51.40;;;;;;4972209;28;21043;-60
2024/03/10 02:17:36;;;;;;;20.50;19.60;;;21.10;51.40;;;;;;4973054;28;20503;-59
2024/03/10 02:20:04;;;;;;;21.60;20.60;;;21.10;51.40;;;;;;4974366;28;20450;-57
2024/03/10 02:22:31;;;;;;;20.97;20.10;;;21.10;51.40;;;;;;4972999;28;20510;-59
2024/03/10 02:25:02;;;;;;;21.50;20.60;;;21.10;51.40;;;;;;4989548;23;20499;-63
2024/03/10 02:27:30;;;;;;;21.37;20.37;;;21.00;51.40;;;;;;4961065;28;20448;-61
2024/03/10 02:30:18;;;;;;;21.07;20.17;;;21.00;51.40;;;;;;4962098;28;20452;-60
2024/03/10 02:49:17;;;;;;;21.70;20.70;;;21.00;51.50;;;;;;4957230;28;20561;-62
2024/03/10 02:51:44;;;;;;;21.40;20.50;;;21.00;51.50;;;;;;4965013;28;20961;-62
2024/03/10 02:54:11;;;;;;;21.60;20.60;;;21.00;51.50;;;;;;4967179;28;20535;-62
2024/03/10 02:56:38;;;;;;;21.40;20.50;;;21.00;51.50;;;;;;4960226;28;20835;-63
2024/03/10 02:59:06;;;;;;;21.07;20.13;;;21.00;51.50;;;;;;4959378;28;20445;-62
2024/03/10 03:01:37;;;;;;;20.87;20.00;;;21.00;51.50;;;;;;4968285;28;20800;-62
2024/03/10 03:04:04;;;;;;;21.50;20.57;;;21.00;51.60;;;;;;4966091;28;20446;-60
2024/03/10 03:06:31;;;;;;;21.67;20.67;;;21.00;51.60;;;;;;4964697;28;20464;-62
2024/03/10 03:08:58;;;;;;;21.33;20.40;;;21.00;51.50;;;;;;4964715;28;20536;-62
2024/03/10 03:11:24;;;;;;;21.07;20.17;;;21.00;51.60;;;;;;4968157;28;20452;-61
2024/03/10 03:13:51;;;;;;;21.33;20.43;;;21.00;51.50;;;;;;4967565;28;20455;-62
2024/03/10 03:16:19;;;;;;;22.50;21.50;;;21.00;51.50;;;;;;4967786;28;20483;-61
2024/03/10 03:18:47;;;;;;;21.90;20.80;;;21.00;51.50;;;;;;4961487;28;20514;-62
2024/03/10 03:21:14;;;;;;;21.20;20.33;;;21.00;51.50;;;;;;4964178;28;20485;-62
2024/03/10 03:23:40;;;;;;;21.57;20.57;;;21.00;51.50;;;;;;4964037;28;20451;-61
2024/03/10 03:26:07;;;;;;;21.77;20.67;;;21.00;51.50;;;;;;4965996;28;20468;-62
2024/03/10 03:28:34;;;;;;;21.53;20.63;;;21.00;51.50;;;;;;4964965;28;20444;-61
2024/03/10 03:31:01;;;;;;;22.10;21.10;;;21.00;51.50;;;;;;4965288;28;20794;-62
2024/03/10 03:33:31;;;;;;;21.80;20.90;;;21.00;51.50;;;;;;4967276;28;20443;-62
2024/03/10 03:35:58;;;;;;;21.30;20.40;;;20.90;51.40;;;;;;4966747;28;20483;-62
2024/03/10 03:38:25;;;;;;;20.83;19.97;;;21.00;51.50;;;;;;4963440;28;20452;-61
2024/03/10 03:40:52;;;;;;;21.57;20.57;;;21.00;51.50;;;;;;4963480;28;20480;-61
2024/03/10 03:43:19;;;;;;;20.70;19.90;;;20.90;51.40;;;;;;4955798;28;20433;-60
2024/03/10 03:45:45;;;;;;;21.43;20.53;;;21.00;51.50;;;;;;4963985;28;20464;-61
2024/03/10 03:48:12;;;;;;;20.93;20.10;;;21.00;51.50;;;;;;4969741;28;20455;-62
2024/03/10 03:50:40;;;;;;;20.97;20.17;;;20.90;51.40;;;;;;4963809;28;20445;-62
2024/03/10 03:53:07;;;;;;;20.93;20.10;;;20.90;51.40;;;;;;4965201;28;20449;-62
2024/03/10 03:55:33;;;;;;;21.67;20.77;;;20.90;51.40;;;;;;4966974;28;21233;-61
2024/03/10 03:58:01;;;;;;;20.60;19.80;;;20.90;51.40;;;;;;4965488;28;20794;-61
2024/03/10 04:00:29;;;;;;;21.20;20.30;;;20.90;51.40;;;;;;4963894;28;20451;-62
2024/03/10 04:02:56;;;;;;;21.60;20.70;;;20.90;51.40;;;;;;4963407;28;20539;-61
2024/03/10 04:05:23;;;;;;;21.60;20.70;;;20.90;51.50;;;;;;4966928;28;20460;-62
2024/03/10 04:07:51;;;;;;;21.10;20.30;;;20.90;51.50;;;;;;4966418;28;20444;-62
2024/03/10 04:10:18;;;;;;;22.30;21.33;;;20.90;51.50;;;;;;4963839;28;20445;-60
2024/03/10 04:12:45;;;;;;;21.13;20.23;;;20.90;51.50;;;;;;4963082;28;20536;-62
2024/03/10 04:15:12;;;;;;;21.43;20.53;;;20.90;51.50;;;;;;4964268;28;20873;-62
2024/03/10 04:17:38;;;;;;;21.37;20.47;;;20.90;51.50;;;;;;4963546;28;21020;-62
2024/03/10 04:20:12;;;;;;;21.20;20.40;;;20.90;51.50;;;;;;4964524;28;20957;-60
2024/03/10 04:22:39;;;;;;;21.87;20.97;;;20.90;51.50;;;;;;4966679;28;20439;-62
2024/03/10 04:25:08;;;;;;;21.17;20.27;;;20.90;51.50;;;;;;4965072;28;20468;-61
2024/03/10 04:27:35;;;;;;;20.70;19.70;;;20.90;51.50;;;;;;4957407;28;20492;-61
2024/03/10 04:30:04;;;;;;;20.80;19.90;;;20.90;51.50;;;;;;4963984;28;20539;-60
2024/03/10 04:32:31;;;;;;;21.27;20.40;;;20.90;51.50;;;;;;4966549;28;20444;-60
2024/03/10 04:34:58;;;;;;;21.73;20.73;;;20.90;51.50;;;;;;4965627;28;20486;-61
2024/03/10 04:37:27;;;;;;;21.60;20.70;;;20.90;51.50;;;;;;4961660;28;20445;-61
2024/03/10 04:39:53;;;;;;;22.03;21.13;;;20.90;51.60;;;;;;4962975;28;20503;-61
2024/03/10 04:42:23;;;;;;;21.77;20.77;;;20.90;51.50;;;;;;4966018;28;20952;-61
2024/03/10 04:44:50;;;;;;;21.17;20.27;;;20.90;51.60;;;;;;4966182;28;20454;-61
2024/03/10 04:47:17;;;;;;;21.27;20.37;;;20.90;51.50;;;;;;4962886;28;20443;-61
2024/03/10 04:49:43;;;;;;;21.43;20.50;;;20.90;51.60;;;;;;4962740;28;20463;-62
2024/03/10 04:52:09;;;;;;;21.87;20.97;;;20.90;51.70;;;;;;4964359;28;20452;-61
2024/03/10 04:54:36;;;;;;;20.90;20.00;;;20.90;51.70;;;;;;4965804;28;20436;-62
2024/03/10 04:57:04;;;;;;;21.17;20.27;;;20.90;51.70;;;;;;4964325;28;20464;-61
2024/03/10 04:59:32;;;;;;;21.40;20.50;;;20.90;51.70;;;;;;4962728;28;20448;-60
2024/03/10 05:01:58;;;;;;;22.57;21.57;;;20.90;51.70;;;;;;4962621;28;20922;-60
2024/03/10 05:04:25;;;;;;;21.30;20.50;;;20.90;51.70;;;;;;4965155;28;20466;-61
2024/03/10 05:06:52;;;;;;;21.80;21.00;;;20.90;51.70;;;;;;4965031;28;20460;-60
2024/03/10 05:09:18;;;;;;;22.07;21.17;;;20.90;51.70;;;;;;4962993;28;20452;-62
2024/03/10 05:11:45;;;;;;;22.17;21.17;;;20.90;51.70;;;;;;4962543;28;20456;-61
2024/03/10 05:14:12;;;;;;;22.20;21.20;;;20.90;51.70;;;;;;4963827;28;21017;-60
2024/03/10 05:16:41;;;;;;;22.43;21.53;;;20.90;51.70;;;;;;4961374;28;20491;-61
2024/03/10 05:19:09;;;;;;;22.43;21.53;;;20.90;51.70;;;;;;4960517;28;20441;-62
2024/03/10 05:21:36;;;;;;;22.00;20.97;;;20.90;51.70;;;;;;4965750;28;20471;-60
2024/03/10 05:24:03;;;;;;;22.03;21.13;;;20.90;51.70;;;;;;4963924;28;20614;-60
2024/03/10 05:26:30;;;;;;;21.77;20.87;;;20.90;51.70;;;;;;4961992;28;20496;-62
2024/03/10 05:28:56;;;;;;;22.33;21.33;;;20.90;51.70;;;;;;4962184;28;20516;-62
2024/03/10 05:31:28;;;;;;;21.73;20.83;;;20.90;51.70;;;;;;4965168;28;20440;-61
2024/03/10 05:33:57;;;;;;;27.20;26.20;;;20.90;51.70;;;;;;4964348;28;20506;-61
2024/03/10 05:36:24;;;;;;;25.80;24.80;;;20.90;51.70;;;;;;4961755;28;20488;-62
2024/03/10 05:38:51;;;;;;;22.17;21.17;;;20.90;51.70;;;;;;4962148;28;20448;-61
2024/03/10 05:41:18;;;;;;;22.50;21.50;;;20.90;51.70;;;;;;4964282;28;20480;-62
2024/03/10 05:43:45;;;;;;;26.53;25.53;;;20.90;51.80;;;;;;4964116;28;20867;-62
2024/03/10 05:46:12;;;;;;;22.07;21.10;;;20.90;51.70;;;;;;4963513;28;20467;-62
2024/03/10 05:48:40;;;;;;;22.23;21.43;;;20.90;51.70;;;;;;4961934;28;20467;-62
2024/03/10 05:51:08;;;;;;;21.17;20.37;;;21.00;51.90;;;;;;4962512;28;20527;-62
2024/03/10 05:53:36;;;;;;;21.63;20.77;;;21.00;51.80;;;;;;4960814;28;20985;-61
2024/03/10 05:56:03;;;;;;;21.27;20.47;;;21.00;51.90;;;;;;4961949;28;20571;-62
2024/03/10 05:58:31;;;;;;;24.30;23.37;;;21.00;51.80;;;;;;4965141;28;20451;-62
2024/03/10 06:00:58;;;;;;;25.87;24.60;;;21.00;51.90;;;;;;4965098;28;20447;-61
2024/03/10 06:03:25;;;;;;;24.73;23.83;;;21.00;51.90;;;;;;4960667;28;20445;-61
2024/03/10 06:05:52;;;;;;;25.00;24.10;;;21.00;51.90;;;;;;4961602;28;20469;-61
2024/03/10 06:08:20;;;;;;;25.23;24.33;;;21.00;51.90;;;;;;4963992;28;20452;-62
2024/03/10 06:10:47;;;;;;;21.10;20.30;;;21.00;52.00;;;;;;4964830;28;20824;-62
2024/03/10 06:13:14;;;;;;;21.20;20.30;;;21.00;52.10;;;;;;4961980;28;20439;-62
2024/03/10 06:15:41;;;;;;;22.13;21.23;;;21.00;52.10;;;;;;4963755;28;20487;-61
2024/03/10 06:18:18;;;;;;;21.77;20.87;;;21.00;52.10;;;;;;4963880;28;20451;-62
2024/03/10 06:26:14;;;;;;;22.70;21.60;;;21.00;52.10;;;;;;4962569;28;20476;-62
2024/03/10 06:28:42;;;;;;;21.70;20.90;;;21.00;52.10;;;;;;4964651;28;20793;-61
2024/03/10 06:31:08;;;;;;;21.77;20.77;;;21.00;52.10;;;;;;4963763;28;20448;-62
2024/03/10 06:33:35;;;;;;;21.57;20.63;;;21.00;52.10;;;;;;4960302;28;20507;-61
2024/03/10 06:36:08;;;;;;;21.93;21.03;;;21.00;52.10;;;;;;4961196;28;20554;-61
2024/03/10 06:38:38;;;;;;;22.17;21.27;;;21.00;52.10;;;;;;4964571;28;20451;-64
2024/03/10 06:41:05;;;;;;;22.70;21.73;;;21.00;52.10;;;;;;4964432;28;20447;-62
2024/03/10 06:43:32;;;;;;;22.90;21.90;;;21.00;52.10;;;;;;4960205;28;20448;-63
2024/03/10 06:45:59;;;;;;;23.50;22.50;;;21.00;52.10;;;;;;4961231;28;20874;-62
2024/03/10 06:48:26;;;;;;;23.43;22.43;;;21.00;52.10;;;;;;4964096;28;20803;-63
2024/03/10 06:50:52;;;;;;;22.83;21.93;;;21.00;52.10;;;;;;4964508;28;20452;-63
2024/03/10 06:53:19;;;;;;;22.87;21.97;;;21.00;52.10;;;;;;4961149;28;20452;-64
2024/03/10 06:55:48;;;;;;;22.60;21.77;;;21.10;52.20;;;;;;4960995;28;20857;-63
2024/03/10 06:58:14;;;;;;;23.77;22.77;;;21.00;52.10;;;;;;4962491;28;20440;-63
2024/03/10 07:00:41;;;;;;;22.13;21.33;;;21.10;52.20;;;;;;4963692;28;20809;-63
2024/03/10 07:03:11;;;;;;;23.07;22.07;;;21.10;52.20;;;;;;4963454;28;20444;-63
2024/03/10 07:05:39;;;;;;;21.87;21.07;;;21.10;52.20;;;;;;4960880;28;20468;-63
2024/03/10 07:08:07;;;;;;;23.07;21.83;;;21.10;52.20;;;;;;4961127;28;20531;-63
2024/03/10 07:10:35;;;;;;;23.93;22.83;;;21.10;52.20;;;;;;4964052;28;20455;-63
2024/03/10 07:13:03;;;;;;;22.10;21.20;;;21.10;52.20;;;;;;4964026;28;20448;-64
2024/03/10 07:15:30;;;;;;;22.10;21.30;;;21.10;52.30;;;;;;4952849;28;20461;-67
2024/03/10 07:17:57;;;;;;;22.80;21.80;;;21.10;52.50;;;;;;4961210;28;20449;-66
2024/03/10 07:20:24;;;;;;;23.00;22.00;;;21.20;53.10;;;;;;4961757;28;20447;-64
2024/03/10 07:22:51;;;;;;;22.57;21.57;;;21.10;53.10;;;;;;4963874;28;20480;-66
2024/03/10 07:25:18;;;;;;;22.63;21.73;;;21.20;52.90;;;;;;4962056;28;20489;-63
2024/03/10 07:27:45;;;;;;;23.03;22.03;;;21.20;52.80;;;;;;4964484;28;20459;-64
2024/03/10 07:30:14;;;;;;;22.47;21.50;;;21.30;52.80;;;;;;4964441;28;20451;-65
2024/03/10 07:32:42;;;;;;;23.63;22.63;;;21.30;52.70;;;;;;4967635;28;20454;-66
2024/03/10 07:35:09;;;;;;;24.10;22.87;;;21.40;52.80;;;;;;4965949;28;20528;-65
2024/03/10 07:37:36;;;;;;;23.07;22.17;;;21.40;52.60;;;;;;4967511;28;20475;-65
2024/03/10 07:40:07;;;;;;;23.20;21.77;;;21.40;52.60;;;;;;4965953;28;20448;-63
2024/03/10 07:42:33;;;;;;;23.33;22.43;;;21.40;52.50;;;;;;4956635;28;20472;-62
2024/03/10 07:45:00;;;;;;;23.23;22.23;;;21.40;52.40;;;;;;4963913;28;20471;-63
2024/03/10 07:47:29;;;;;;;22.63;21.63;;;21.50;52.40;;;;;;4964219;28;20468;-65
2024/03/10 07:49:57;;;;;;;22.93;22.03;;;21.50;52.30;;;;;;4963818;28;20452;-66
2024/03/10 07:52:24;;;;;;;23.50;22.60;;;21.50;52.20;;;;;;4965867;28;20448;-62
2024/03/10 07:54:50;;;;;;;22.87;21.97;;;21.50;52.20;;;;;;4966723;28;20439;-63
2024/03/10 07:57:17;;;;;;;22.20;21.37;;;21.60;52.20;;;;;;4965637;28;20562;-64
2024/03/10 07:59:44;;;;;;;23.30;22.40;;;21.60;52.10;;;;;;4963797;28;20449;-66
2024/03/10 08:02:11;;;;;;;24.17;23.17;;;21.60;52.00;;;;;;4963464;28;20451;-63
2024/03/10 08:04:40;;;;;;;24.90;23.90;;;21.70;52.00;;;;;;4950653;28;20454;-64
2024/03/10 08:07:07;;;;;;;23.13;22.23;;;21.70;51.90;;;;;;4952644;28;20978;-63
2024/03/10 08:09:35;;;;;;;24.73;23.53;;;21.70;51.80;;;;;;4966922;28;20491;-64
2024/03/10 08:12:04;;;;;;;24.70;23.70;;;21.70;51.90;;;;;;4958712;28;20938;-66
2024/03/10 08:14:31;;;;;;;23.30;22.40;;;21.80;52.00;;;;;;4954898;28;20441;-66
2024/03/10 08:16:58;;;;;;;24.27;23.17;;;21.80;52.60;;;;;;4966880;28;20480;-65
2024/03/10 08:19:25;;;;;;;23.60;22.50;;;21.80;51.80;;;;;;4964871;28;20444;-65
2024/03/10 08:21:53;;;;;;;25.40;24.40;;;21.80;51.30;;;;;;4963030;28;20445;-64
2024/03/10 08:24:20;;;;;;;24.37;23.37;;;21.80;51.90;;;;;;4964709;28;20965;-64
2024/03/10 08:26:47;;;;;;;23.83;22.83;;;21.90;52.00;;;;;;5045460;23;20493;-66
2024/03/10 08:29:13;;;;;;;23.67;22.77;;;21.90;52.00;;;;;;5013407;28;20834;-65
2024/03/10 08:31:41;;;;;;;24.60;23.60;;;21.90;52.00;;;;;;5002626;28;20815;-66
2024/03/10 08:34:08;;;;;;;23.87;22.97;;;21.90;52.00;;;;;;5002719;28;20481;-64
2024/03/10 08:36:35;;;;;;;23.40;22.50;;;22.00;52.10;;;;;;5015506;28;20485;-67
2024/03/10 08:39:07;;;;;;;25.13;24.13;;;22.00;52.10;;;;;;5012955;28;20453;-64
2024/03/10 08:41:34;;;;;;;24.20;23.30;;;22.00;52.00;;;;;;5002818;28;20447;-66
2024/03/10 08:44:03;;;;;;;24.00;23.10;;;22.10;52.00;;;;;;5001670;28;20454;-68
2024/03/10 08:46:30;;;;;;;24.07;23.07;;;22.10;51.90;;;;;;5010874;28;20462;-65
2024/03/10 08:48:57;;;;;;;24.00;23.00;;;22.10;51.80;;;;;;5013672;28;20446;-66
2024/03/10 08:51:24;;;;;;;23.83;22.90;;;22.20;51.80;;;;;;5003067;28;20446;-66
2024/03/10 08:53:50;;;;;;;23.43;22.53;;;22.20;51.70;;;;;;5003087;28;20447;-66
2024/03/10 08:56:18;;;;;;;23.70;22.70;;;22.20;51.60;;;;;;5007769;28;20486;-66
2024/03/10 08:58:45;;;;;;;23.13;22.23;;;22.20;51.60;;;;;;5008318;28;20787;-66
2024/03/10 09:01:12;;;;;;;24.30;23.30;;;22.30;51.60;;;;;;5002093;28;20935;-65
2024/03/10 09:03:39;;;;;;;23.77;22.87;;;22.30;52.00;;;;;;5012868;28;20446;-66
2024/03/10 09:06:06;;;;;;;24.90;24.00;;;22.30;51.50;;;;;;5012824;28;20470;-67
2024/03/10 09:08:34;;;;;;;24.63;23.63;;;22.40;51.60;;;;;;5014237;28;20442;-66
2024/03/10 09:11:06;;;;;;;24.87;23.80;;;22.40;51.50;;;;;;5006308;28;20465;-65
2024/03/10 09:13:35;;;;;;;24.38;23.38;;;22.40;51.40;;;;;;5013498;28;20896;-61
2024/03/10 09:16:02;;;;;;;21.00;20.20;;;22.50;51.50;;;;;;5004542;28;20799;-63
2024/03/10 09:18:30;;;;;;;24.63;23.23;;;22.50;51.20;;;;;;5003890;28;20211;-62
2024/03/10 09:20:57;;;;;;;23.63;22.73;;;22.60;51.40;;;;;;5004500;28;20954;-62
2024/03/10 09:23:25;;;;;;;23.47;22.47;;;22.70;51.10;;;;;;5004451;28;20446;-60
2024/03/10 09:25:54;;;;;;;24.10;22.97;;;22.80;51.00;;;;;;5006859;28;20478;-61
2024/03/10 09:28:22;;;;;;;23.90;22.20;;;22.80;50.80;;;;;;5002458;28;20501;-62
2024/03/10 09:30:50;;;;;;;23.00;22.20;;;22.90;50.80;;;;;;5012603;28;20450;-66
2024/03/10 09:33:18;;;;;;;24.30;23.20;;;22.80;51.30;;;;;;5006793;28;20437;-69
2024/03/10 09:35:45;;;;;;;24.13;23.13;;;22.80;51.50;;;;;;5004335;28;20910;-66
2024/03/10 09:38:12;;;;;;;23.80;22.80;;;22.80;51.30;;;;;;5015022;28;20489;-66
2024/03/10 09:40:39;;;;;;;24.07;23.17;;;22.80;51.30;;;;;;5012457;28;20438;-66
2024/03/10 09:43:11;;;;;;;23.03;22.13;;;22.80;51.30;;;;;;5004270;28;20452;-66
2024/03/10 09:45:41;;;;;;;23.77;22.60;;;22.80;51.40;;;;;;5012239;28;20834;-66
2024/03/10 09:48:10;;;;;;;22.90;22.00;;;22.80;51.40;;;;;;5012420;28;20438;-66
2024/03/10 09:50:40;;;;;;;23.43;22.53;;;22.80;52.10;;;;;;5003862;28;20811;-66
2024/03/10 09:53:09;;;;;;;23.60;22.60;;;22.80;51.60;;;;;;5003967;28;20446;-63
2024/03/10 09:55:36;;;;;;;23.93;22.90;;;22.90;51.40;;;;;;5012152;28;20545;-62
2024/03/10 09:58:10;;;;;;;24.33;23.23;;;22.80;49.80;;;;;;5005156;28;20488;-62
2024/03/10 10:00:39;;;;;;;25.07;23.87;;;22.70;47.90;;;;;;5003858;28;20524;-62
2024/03/10 10:03:12;;;;;;;24.97;23.47;;;22.60;46.90;;;;;;5014191;28;20526;-63
2024/03/10 10:05:44;;;;;;;26.80;25.40;;;22.70;47.30;;;;;;5004193;28;20516;-63
2024/03/10 10:08:12;;;;;;;26.70;25.00;;;22.70;45.90;;;;;;5012033;28;20442;-63
2024/03/10 10:10:41;;;;;;;24.80;23.70;;;22.70;44.80;;;;;;5003956;28;20446;-63
2024/03/10 10:13:09;;;;;;;25.57;24.27;;;22.60;44.60;;;;;;5012820;28;20480;-63
2024/03/10 10:15:36;;;;;;;25.80;24.40;;;22.60;44.60;;;;;;5011490;28;20504;-64
2024/03/10 10:18:03;;;;;;;26.13;24.80;;;22.50;44.40;;;;;;5016688;28;20211;-62
2024/03/10 10:20:32;;;;;;;26.37;25.07;;;22.50;44.00;;;;;;5015181;28;20441;-58
2024/03/10 10:23:00;;;;;;;25.57;24.37;;;22.50;43.70;;;;;;5015611;28;20477;-65
2024/03/10 10:25:28;;;;;;;23.17;22.17;;;22.50;43.80;;;;;;5000926;28;20432;-61
2024/03/10 10:27:55;;;;;;;24.30;23.10;;;22.40;43.00;;;;;;5011092;28;20502;-60
2024/03/10 10:30:23;;;;;;;26.20;24.97;;;22.40;42.90;;;;;;5011493;28;20237;-61
2024/03/10 10:33:01;;;;;;;25.23;24.03;;;22.40;42.80;;;;;;5011392;28;20457;-65
2024/03/10 10:35:33;;;;;;;26.33;25.13;;;22.50;42.80;;;;;;5001218;28;20502;-63
2024/03/10 10:38:04;;;;;;;24.70;23.50;;;22.50;42.10;;;;;;4999141;28;20456;-64
2024/03/10 10:40:30;;;;;;;25.35;24.20;;;22.40;42.10;;;;;;5008082;28;20447;-62
2024/03/10 10:42:58;;;;;;;24.15;22.85;;;22.50;42.90;;;;;;5001935;28;20443;-65
2024/03/10 10:45:25;;;;;;;27.30;25.87;;;22.50;43.80;;;;;;5001787;28;20203;-65
2024/03/10 10:47:54;;;;;;;25.80;24.60;;;22.50;43.70;;;;;;5000092;28;20941;-64
2024/03/10 10:50:31;;;;;;;25.77;24.47;;;22.50;43.60;;;;;;5000807;28;20501;-64
2024/03/10 10:52:58;;;;;;;28.40;27.10;;;22.40;43.60;;;;;;5011187;28;20585;-64
2024/03/10 10:55:27;;;;;;;23.63;22.52;;;22.40;43.80;;;;;;5001014;28;20469;-65
2024/03/10 10:57:58;;;;;;;26.30;25.00;;;22.30;43.90;;;;;;4999917;28;20510;-65
2024/03/10 11:00:29;;;;;;;24.77;23.23;;;22.30;44.00;;;;;;5000909;28;20447;-62
2024/03/10 11:03:16;;;;;;;23.30;22.30;;;22.30;43.70;;;;;;5005570;28;20442;-65
2024/03/10 11:05:45;;;;;;;26.13;24.83;;;22.30;43.80;;;;;;5015140;28;20305;-65
2024/03/10 11:08:13;;;;;;;24.73;23.57;;;22.30;43.60;;;;;;5015162;28;20957;-66
2024/03/10 11:10:50;;;;;;;26.10;24.90;;;22.30;43.70;;;;;;5006897;28;20438;-65
2024/03/10 11:13:18;;;;;;;26.30;25.17;;;22.20;43.60;;;;;;5014646;28;20452;-64
2024/03/10 11:15:46;;;;;;;27.53;26.33;;;22.20;43.90;;;;;;5015007;28;20523;-65
2024/03/10 11:18:25;;;;;;;29.03;27.30;;;22.20;43.80;;;;;;5014790;28;20532;-66
2024/03/10 11:20:55;;;;;;;28.57;27.17;;;22.10;43.60;;;;;;5008566;28;20469;-65
2024/03/10 11:23:27;;;;;;;28.10;26.83;;;22.00;43.90;;;;;;5005601;28;20939;-63
2024/03/10 11:25:55;;;;;;;28.17;26.10;;;22.00;44.20;;;;;;5008190;28;20465;-63
2024/03/10 11:28:25;;;;;;;29.10;27.60;;;21.90;44.10;;;;;;5013502;28;20430;-62
2024/03/10 11:30:56;;;;;;;31.50;30.10;;;21.90;44.40;;;;;;5006662;28;20747;-63
2024/03/10 11:33:24;;;;;;;29.80;28.40;;;22.00;44.60;;;;;;4997090;28;20915;-65
2024/03/10 11:35:52;;;;;;;30.20;29.00;;;22.00;44.50;;;;;;5006351;28;20469;-66
2024/03/10 11:38:20;;;;;;;30.47;29.17;;;22.10;44.50;;;;;;5006364;28;20481;-65
2024/03/10 11:40:58;;;;;;;32.10;30.50;;;22.10;44.60;;;;;;5006371;28;20446;-65
2024/03/10 11:43:26;;;;;;;31.00;29.40;;;22.20;44.70;;;;;;5013942;28;20446;-65
2024/03/10 11:45:53;;;;;;;30.07;28.57;;;22.20;44.60;;;;;;5014237;28;20490;-66
2024/03/10 11:48:22;;;;;;;30.63;29.33;;;22.20;44.60;;;;;;5014178;28;20453;-66
2024/03/10 11:50:49;;;;;;;29.00;27.70;;;22.10;44.40;;;;;;5006365;28;20446;-64
2024/03/10 11:53:16;;;;;;;31.70;30.17;;;22.20;44.60;;;;;;5005815;28;20481;-62
2024/03/10 11:55:44;;;;;;;30.77;29.57;;;22.10;44.40;;;;;;5014230;28;20466;-65
2024/03/10 11:58:13;;;;;;;30.97;29.57;;;22.10;44.50;;;;;;5014200;28;20485;-62
2024/03/10 12:00:41;;;;;;;30.70;29.30;;;22.10;44.60;;;;;;5013870;28;20450;-64
2024/03/10 12:03:08;;;;;;;29.30;27.90;;;22.10;44.60;;;;;;5013784;28;20454;-64
2024/03/10 12:05:35;;;;;;;30.63;29.17;;;22.10;44.60;;;;;;5013873;28;20470;-65
2024/03/10 12:08:05;;;;;;;30.23;28.87;;;22.10;44.50;;;;;;5014160;28;20445;-66
2024/03/10 12:10:32;;;;;;;31.43;30.03;;;22.00;44.60;;;;;;5013792;28;20953;-66
2024/03/10 12:12:59;;;;;;;32.77;31.30;;;22.00;44.60;;;;;;5013441;28;20984;-66
2024/03/10 12:15:29;;;;;;;31.27;29.73;;;22.00;44.50;;;;;;5013623;28;20821;-66
2024/03/10 12:18:00;;;;;;;33.03;31.53;;;22.00;44.40;;;;;;5016449;28;20505;-65
2024/03/10 12:20:27;;;;;;;32.20;30.40;;;21.90;44.50;;;;;;5013916;28;20525;-67
2024/03/10 12:22:58;;;;;;;31.60;30.23;;;21.90;44.70;;;;;;5013525;28;20446;-64
2024/03/10 12:25:24;;;;;;;36.77;34.80;;;21.90;44.90;;;;;;5005279;28;20488;-65
2024/03/10 12:27:51;;;;;;;33.17;31.57;;;21.80;44.80;;;;;;5013864;28;20452;-65
2024/03/10 12:30:21;;;;;;;34.57;32.60;;;21.80;44.90;;;;;;5013631;28;20441;-66
2024/03/10 12:32:50;;;;;;;37.70;35.30;;;21.80;44.80;;;;;;5006506;28;20533;-68
2024/03/10 12:35:19;;;;;;;37.57;35.27;;;21.80;44.70;;;;;;5013520;28;20448;-66
2024/03/10 12:37:47;;;;;;;35.97;33.60;;;21.80;44.40;;;;;;5001974;28;20492;-67
2024/03/10 12:40:16;;;;;;;35.90;34.10;;;21.80;44.60;;;;;;5002249;28;20447;-64
2024/03/10 12:42:43;;;;;;;36.03;34.23;;;21.80;44.80;;;;;;5005048;28;20453;-65
2024/03/10 12:45:15;;;;;;;34.73;32.77;;;21.80;44.50;;;;;;5005138;28;20516;-65
2024/03/10 12:47:43;;;;;;;36.53;34.50;;;21.80;44.50;;;;;;5013217;28;20449;-65
2024/03/10 12:50:12;;;;;;;35.50;33.50;;;21.80;44.40;;;;;;5013207;28;20453;-65
2024/03/10 12:52:39;;;;;;;36.53;34.47;;;21.80;44.30;;;;;;5013174;28;20452;-65
2024/03/10 12:55:07;;;;;;;33.60;31.47;;;21.80;44.20;;;;;;5004709;28;20449;-64